Brooklawn, New Jersey
Current Conditions -  °F | °C
As of 1:24 PM on Wednesday 26 Nov 2014 (Local Time) from KPHL Reporting Station
Light Snow Light Snow  
Wind Chill: 26°   Ceiling: 1000
Heat Index: 36°   Visibility: 5mi
Dew Point: 32°   Wind: 16mph
Humidity: 86%   Direction: 360°N
Pressure: 29.96"   Gusts: NA
Location:  39.8885°N, 75.1173°W
Report Text: KPHL 261824Z 36014KT 5SM -RASN BR SCT007 OVC010 02/00 A2996 RMK AO2 SNE14B24 P0002 T00220000 $
Loading
Personal Weather Stations






























Interactive Weather Map New forecast layout! Learn more

10-Day Weather Forecast

Advertisements
Track Severe Weather on mobile